sensor_id;sensor_type;location;lat;lon;timestamp;pressure;altitude;pressure_sealevel;temperature;humidity
42003;BME280;27693;50.506;30.832;2023-07-24T00:00:40;99641.94;;;17.31;77.18
42003;BME280;27693;50.506;30.832;2023-07-24T00:01:43;99641.59;;;17.35;76.63
42003;BME280;27693;50.506;30.832;2023-07-24T00:02:45;99639.86;;;17.23;77.01
42003;BME280;27693;50.506;30.832;2023-07-24T00:03:48;99632.95;;;17.22;77.04
42003;BME280;27693;50.506;30.832;2023-07-24T00:04:51;99628.78;;;17.31;77.13
42003;BME280;27693;50.506;30.832;2023-07-24T00:05:58;99637.64;;;17.41;77.05
42003;BME280;27693;50.506;30.832;2023-07-24T00:07:10;99634.45;;;17.60;75.79
42003;BME280;27693;50.506;30.832;2023-07-24T00:08:12;99627.77;;;17.56;75.69
42003;BME280;27693;50.506;30.832;2023-07-24T00:09:15;99631.34;;;17.55;75.16
42003;BME280;27693;50.506;30.832;2023-07-24T00:10:19;99622.25;;;17.48;75.42
42003;BME280;27693;50.506;30.832;2023-07-24T00:11:21;99624.62;;;17.51;75.30
42003;BME280;27693;50.506;30.832;2023-07-24T00:12:24;99625.09;;;17.45;75.18
42003;BME280;27693;50.506;30.832;2023-07-24T00:13:26;99624.73;;;17.38;75.68
42003;BME280;27693;50.506;30.832;2023-07-24T00:14:29;99632.02;;;17.34;75.75
42003;BME280;27693;50.506;30.832;2023-07-24T00:15:31;99622.45;;;17.33;75.90
42003;BME280;27693;50.506;30.832;2023-07-24T00:16:34;99624.86;;;17.36;75.62
42003;BME280;27693;50.506;30.832;2023-07-24T00:17:36;99628.19;;;17.38;75.32
42003;BME280;27693;50.506;30.832;2023-07-24T00:18:39;99626.52;;;17.37;75.63
42003;BME280;27693;50.506;30.832;2023-07-24T00:19:41;99625.56;;;17.38;75.38
42003;BME280;27693;50.506;30.832;2023-07-24T00:20:44;99623.53;;;17.31;75.64
42003;BME280;27693;50.506;30.832;2023-07-24T00:21:46;99620.51;;;17.24;76.31
42003;BME280;27693;50.506;30.832;2023-07-24T00:22:48;99617.88;;;17.24;76.15
42003;BME280;27693;50.506;30.832;2023-07-24T00:23:50;99624.60;;;17.28;75.59
42003;BME280;27693;50.506;30.832;2023-07-24T00:24:54;99614.69;;;17.32;75.49
42003;BME280;27693;50.506;30.832;2023-07-24T00:25:56;99613.15;;;17.40;75.39
42003;BME280;27693;50.506;30.832;2023-07-24T00:26:58;99613.15;;;17.40;75.22
42003;BME280;27693;50.506;30.832;2023-07-24T00:28:01;99611.25;;;17.43;75.07
42003;BME280;27693;50.506;30.832;2023-07-24T00:29:03;99611.25;;;17.43;74.86
42003;BME280;27693;50.506;30.832;2023-07-24T00:30:07;99614.78;;;17.30;74.68
42003;BME280;27693;50.506;30.832;2023-07-24T00:31:10;99614.30;;;17.25;75.29
42003;BME280;27693;50.506;30.832;2023-07-24T00:32:14;99616.93;;;17.25;75.25
42003;BME280;27693;50.506;30.832;2023-07-24T00:33:16;99618.27;;;17.31;75.29
42003;BME280;27693;50.506;30.832;2023-07-24T00:34:19;99611.94;;;17.33;75.19
42003;BME280;27693;50.506;30.832;2023-07-24T00:35:22;99604.30;;;17.42;75.32
42003;BME280;27693;50.506;30.832;2023-07-24T00:36:26;99609.09;;;17.48;74.93
42003;BME280;27693;50.506;30.832;2023-07-24T00:37:28;99603.36;;;17.54;74.70
42003;BME280;27693;50.506;30.832;2023-07-24T00:38:31;99607.92;;;17.63;74.60
42003;BME280;27693;50.506;30.832;2023-07-24T00:39:33;99601.20;;;17.59;74.14
42003;BME280;27693;50.506;30.832;2023-07-24T00:40:36;99607.20;;;17.61;74.10
42003;BME280;27693;50.506;30.832;2023-07-24T00:41:40;99610.05;;;17.58;74.15
42003;BME280;27693;50.506;30.832;2023-07-24T00:42:47;99599.66;;;17.56;74.00
42003;BME280;27693;50.506;30.832;2023-07-24T00:43:51;99596.89;;;17.47;74.13
42003;BME280;27693;50.506;30.832;2023-07-24T00:44:53;99601.08;;;17.38;74.60
42003;BME280;27693;50.506;30.832;2023-07-24T00:45:56;99599.52;;;17.35;74.36
42003;BME280;27693;50.506;30.832;2023-07-24T00:46:59;99599.98;;;17.29;74.33
42003;BME280;27693;50.506;30.832;2023-07-24T00:48:02;99603.78;;;17.25;74.91
42003;BME280;27693;50.506;30.832;2023-07-24T00:49:05;99600.67;;;17.20;74.99
42003;BME280;27693;50.506;30.832;2023-07-24T00:50:08;99604.73;;;17.24;74.63
42003;BME280;27693;50.506;30.832;2023-07-24T00:51:11;99597.66;;;17.13;75.18
42003;BME280;27693;50.506;30.832;2023-07-24T00:52:14;99600.75;;;17.07;75.96
42003;BME280;27693;50.506;30.832;2023-07-24T00:53:18;99602.67;;;17.05;76.03
42003;BME280;27693;50.506;30.832;2023-07-24T00:54:22;99604.56;;;17.03;76.28
42003;BME280;27693;50.506;30.832;2023-07-24T00:55:26;99603.50;;;17.05;76.60
42003;BME280;27693;50.506;30.832;2023-07-24T00:56:30;99594.20;;;17.13;76.33
42003;BME280;27693;50.506;30.832;2023-07-24T00:57:34;99606.15;;;17.17;76.44
42003;BME280;27693;50.506;30.832;2023-07-24T00:58:37;99600.67;;;17.20;76.15
42003;BME280;27693;50.506;30.832;2023-07-24T00:59:41;99596.02;;;17.23;76.12
42003;BME280;27693;50.506;30.832;2023-07-24T01:00:44;99601.02;;;17.15;76.42
42003;BME280;27693;50.506;30.832;2023-07-24T01:01:47;99596.34;;;17.07;76.79
42003;BME280;27693;50.506;30.832;2023-07-24T01:02:50;99591.79;;;17.09;77.17
42003;BME280;27693;50.506;30.832;2023-07-24T01:03:54;99601.33;;;16.99;77.19
42003;BME280;27693;50.506;30.832;2023-07-24T01:05:00;99596.53;;;16.93;77.69
42003;BME280;27693;50.506;30.832;2023-07-24T01:06:04;99587.00;;;16.79;77.94
42003;BME280;27693;50.506;30.832;2023-07-24T01:07:06;99595.25;;;16.74;78.33
42003;BME280;27693;50.506;30.832;2023-07-24T01:08:09;99593.11;;;16.80;78.51
42003;BME280;27693;50.506;30.832;2023-07-24T01:09:12;99596.47;;;16.82;78.47
42003;BME280;27693;50.506;30.832;2023-07-24T01:10:15;99589.91;;;16.87;78.03
42003;BME280;27693;50.506;30.832;2023-07-24T01:11:23;99592.66;;;16.86;77.96
42003;BME280;27693;50.506;30.832;2023-07-24T01:12:43;99584.44;;;16.90;77.78
42003;BME280;27693;50.506;30.832;2023-07-24T01:13:51;99587.41;;;16.86;77.89
42003;BME280;27693;50.506;30.832;2023-07-24T01:14:55;99591.22;;;16.82;78.16
42003;BME280;27693;50.506;30.832;2023-07-24T01:16:09;99589.54;;;16.81;78.59
42003;BME280;27693;50.506;30.832;2023-07-24T01:17:14;99588.59;;;16.82;78.15
42003;BME280;27693;50.506;30.832;2023-07-24T01:18:17;99594.19;;;16.77;78.46
42003;BME280;27693;50.506;30.832;2023-07-24T01:19:40;99589.38;;;16.71;78.55
42003;BME280;27693;50.506;30.832;2023-07-24T01:20:45;99591.44;;;16.79;79.27
42003;BME280;27693;50.506;30.832;2023-07-24T01:22:03;99589.91;;;16.87;78.04
42003;BME280;27693;50.506;30.832;2023-07-24T01:26:07;99590.33;;;16.94;78.77
42003;BME280;27693;50.506;30.832;2023-07-24T01:27:09;99596.47;;;16.82;78.24
42003;BME280;27693;50.506;30.832;2023-07-24T01:28:12;99596.47;;;16.82;77.94
42003;BME280;27693;50.506;30.832;2023-07-24T01:29:15;99595.46;;;16.71;78.67
42003;BME280;27693;50.506;30.832;2023-07-24T01:30:20;99592.95;;;16.70;78.79
42003;BME280;27693;50.506;30.832;2023-07-24T01:31:23;99590.42;;;16.68;79.19
42003;BME280;27693;50.506;30.832;2023-07-24T01:32:26;99596.58;;;16.56;79.39
42003;BME280;27693;50.506;30.832;2023-07-24T01:33:29;99601.62;;;16.59;79.61
42003;BME280;27693;50.506;30.832;2023-07-24T01:34:33;99594.23;;;16.64;79.43
42003;BME280;27693;50.506;30.832;2023-07-24T01:35:38;99599.03;;;16.70;79.34
42003;BME280;27693;50.506;30.832;2023-07-24T01:36:40;99591.28;;;16.69;79.21
42003;BME280;27693;50.506;30.832;2023-07-24T01:37:43;99585.56;;;16.75;78.34
42003;BME280;27693;50.506;30.832;2023-07-24T01:38:48;99595.25;;;16.74;78.07
42003;BME280;27693;50.506;30.832;2023-07-24T01:39:53;99595.28;;;16.86;80.32
42003;BME280;27693;50.506;30.832;2023-07-24T01:40:57;99592.23;;;16.92;78.84
42003;BME280;27693;50.506;30.832;2023-07-24T01:42:00;99596.41;;;16.95;77.71
42003;BME280;27693;50.506;30.832;2023-07-24T01:43:04;99599.16;;;16.93;77.70
42003;BME280;27693;50.506;30.832;2023-07-24T01:44:06;99594.52;;;16.97;78.00
42003;BME280;27693;50.506;30.832;2023-07-24T01:45:10;99595.86;;;17.02;77.97
42003;BME280;27693;50.506;30.832;2023-07-24T01:46:13;99599.06;;;17.06;77.78
42003;BME280;27693;50.506;30.832;2023-07-24T01:47:15;99590.75;;;17.12;78.51
42003;BME280;27693;50.506;30.832;2023-07-24T01:48:18;99595.63;;;17.17;77.64
42003;BME280;27693;50.506;30.832;2023-07-24T01:49:20;99588.60;;;17.17;76.50
42003;BME280;27693;50.506;30.832;2023-07-24T01:50:22;99579.39;;;17.23;76.99
42003;BME280;27693;50.506;30.832;2023-07-24T01:51:25;99590.42;;;17.28;76.05
42003;BME280;27693;50.506;30.832;2023-07-24T01:52:29;99588.15;;;17.35;76.40
42003;BME280;27693;50.506;30.832;2023-07-24T01:53:32;99583.14;;;17.43;77.12
42003;BME280;27693;50.506;30.832;2023-07-24T01:54:35;99588.28;;;17.45;76.16
42003;BME280;27693;50.506;30.832;2023-07-24T01:55:37;99586.38;;;17.47;75.95
42003;BME280;27693;50.506;30.832;2023-07-24T01:56:41;99592.11;;;17.40;75.54
42003;BME280;27693;50.506;30.832;2023-07-24T01:57:43;99591.86;;;17.44;75.00
42003;BME280;27693;50.506;30.832;2023-07-24T01:58:46;99601.08;;;17.49;75.15
42003;BME280;27693;50.506;30.832;2023-07-24T01:59:48;99599.52;;;17.47;74.41
42003;BME280;27693;50.506;30.832;2023-07-24T02:00:54;99595.22;;;17.46;76.31
42003;BME280;27693;50.506;30.832;2023-07-24T02:01:57;99590.20;;;17.43;74.84
42003;BME280;27693;50.506;30.832;2023-07-24T02:03:01;99600.95;;;17.39;74.76
42003;BME280;27693;50.506;30.832;2023-07-24T02:04:03;99588.27;;;17.22;74.32
42003;BME280;27693;50.506;30.832;2023-07-24T02:05:08;99605.68;;;17.23;75.85
42003;BME280;27693;50.506;30.832;2023-07-24T02:06:11;99598.99;;;17.19;75.96
42003;BME280;27693;50.506;30.832;2023-07-24T02:07:13;99596.48;;;17.17;76.11
42003;BME280;27693;50.506;30.832;2023-07-24T02:08:16;99599.46;;;17.13;76.32
42003;BME280;27693;50.506;30.832;2023-07-24T02:09:19;99606.27;;;17.15;75.47
42003;BME280;27693;50.506;30.832;2023-07-24T02:10:21;99606.47;;;17.01;75.26
42003;BME280;27693;50.506;30.832;2023-07-24T02:11:24;99611.45;;;16.92;76.44
42003;BME280;27693;50.506;30.832;2023-07-24T02:12:29;99608.81;;;16.92;76.75
42003;BME280;27693;50.506;30.832;2023-07-24T02:13:34;99614.74;;;16.83;77.59
42003;BME280;27693;50.506;30.832;2023-07-24T02:14:37;99615.56;;;16.84;78.06
42003;BME280;27693;50.506;30.832;2023-07-24T02:15:39;99617.21;;;16.73;78.25
42003;BME280;27693;50.506;30.832;2023-07-24T02:16:42;99615.70;;;16.58;79.06
42003;BME280;27693;50.506;30.832;2023-07-24T02:17:46;99622.48;;;16.36;80.29
42003;BME280;27693;50.506;30.832;2023-07-24T02:18:50;99615.05;;;16.30;80.66
42003;BME280;27693;50.506;30.832;2023-07-24T02:19:52;99616.76;;;16.18;81.29
42003;BME280;27693;50.506;30.832;2023-07-24T02:20:56;99610.82;;;16.03;82.29
42003;BME280;27693;50.506;30.832;2023-07-24T02:21:59;99619.63;;;16.02;82.80
42003;BME280;27693;50.506;30.832;2023-07-24T02:23:02;99617.88;;;15.90;83.33
42003;BME280;27693;50.506;30.832;2023-07-24T02:24:04;99621.55;;;15.87;83.71
42003;BME280;27693;50.506;30.832;2023-07-24T02:25:07;99611.89;;;15.88;83.06
42003;BME280;27693;50.506;30.832;2023-07-24T02:26:10;99613.80;;;15.86;83.02
42003;BME280;27693;50.506;30.832;2023-07-24T02:27:24;99615.45;;;15.87;82.94
42003;BME280;27693;50.506;30.832;2023-07-24T02:28:18;99607.89;;;15.95;82.83
42003;BME280;27693;50.506;30.832;2023-07-24T02:29:21;99605.38;;;15.93;82.41
42003;BME280;27693;50.506;30.832;2023-07-24T02:30:25;99604.76;;;15.90;82.35
42003;BME280;27693;50.506;30.832;2023-07-24T02:31:27;99609.06;;;15.91;82.78
42003;BME280;27693;50.506;30.832;2023-07-24T02:32:31;99605.58;;;15.90;82.50
42003;BME280;27693;50.506;30.832;2023-07-24T02:33:34;99616.70;;;15.81;83.11
42003;BME280;27693;50.506;30.832;2023-07-24T02:34:37;99615.22;;;15.77;83.03
42003;BME280;27693;50.506;30.832;2023-07-24T02:35:39;99618.47;;;15.80;83.49
42003;BME280;27693;50.506;30.832;2023-07-24T02:36:43;99616.08;;;15.77;83.21
42003;BME280;27693;50.506;30.832;2023-07-24T02:37:45;99622.89;;;15.80;82.43
42003;BME280;27693;50.506;30.832;2023-07-24T02:38:48;99620.07;;;15.83;82.29
42003;BME280;27693;50.506;30.832;2023-07-24T02:39:51;99618.70;;;15.77;82.95
42003;BME280;27693;50.506;30.832;2023-07-24T02:40:55;99619.64;;;15.76;83.06
42003;BME280;27693;50.506;30.832;2023-07-24T02:41:58;99619.64;;;15.76;83.06
42003;BME280;27693;50.506;30.832;2023-07-24T02:43:00;99620.93;;;15.84;83.05
42003;BME280;27693;50.506;30.832;2023-07-24T02:44:03;99629.31;;;15.89;83.05
42003;BME280;27693;50.506;30.832;2023-07-24T02:45:07;99620.50;;;15.90;82.74
42003;BME280;27693;50.506;30.832;2023-07-24T02:46:12;99623.32;;;15.87;83.13
42003;BME280;27693;50.506;30.832;2023-07-24T02:47:14;99617.53;;;15.81;83.18
42003;BME280;27693;50.506;30.832;2023-07-24T02:48:17;99623.41;;;15.72;83.39
42003;BME280;27693;50.506;30.832;2023-07-24T02:49:19;99619.52;;;15.78;83.60
42003;BME280;27693;50.506;30.832;2023-07-24T02:50:22;99617.33;;;15.72;83.84
42003;BME280;27693;50.506;30.832;2023-07-24T02:51:24;99621.01;;;15.69;84.09
42003;BME280;27693;50.506;30.832;2023-07-24T02:52:27;99613.34;;;15.66;84.38
42003;BME280;27693;50.506;30.832;2023-07-24T02:53:30;99619.75;;;15.75;84.26
42003;BME280;27693;50.506;30.832;2023-07-24T02:54:32;99617.33;;;15.72;84.21
42003;BME280;27693;50.506;30.832;2023-07-24T02:55:34;99623.83;;;15.66;84.40
42003;BME280;27693;50.506;30.832;2023-07-24T02:56:37;99620.49;;;15.64;84.96
42003;BME280;27693;50.506;30.832;2023-07-24T02:57:41;99620.27;;;15.67;84.90
42003;BME280;27693;50.506;30.832;2023-07-24T02:58:45;99623.41;;;15.72;84.68
42003;BME280;27693;50.506;30.832;2023-07-24T02:59:48;99630.56;;;15.83;83.97
42003;BME280;27693;50.506;30.832;2023-07-24T03:00:51;99625.31;;;15.96;83.73
42003;BME280;27693;50.506;30.832;2023-07-24T03:01:53;99626.45;;;16.05;82.98
42003;BME280;27693;50.506;30.832;2023-07-24T03:02:55;99626.77;;;16.00;82.68
42003;BME280;27693;50.506;30.832;2023-07-24T03:03:57;99626.87;;;15.99;82.90
42003;BME280;27693;50.506;30.832;2023-07-24T03:05:00;99628.25;;;16.04;82.41
42003;BME280;27693;50.506;30.832;2023-07-24T03:06:03;99624.45;;;16.08;82.33
42003;BME280;27693;50.506;30.832;2023-07-24T03:07:07;99623.00;;;15.91;82.42
42003;BME280;27693;50.506;30.832;2023-07-24T03:08:10;99624.30;;;15.86;82.93
42003;BME280;27693;50.506;30.832;2023-07-24T03:09:13;99612.94;;;15.98;83.79
42003;BME280;27693;50.506;30.832;2023-07-24T03:10:15;99620.87;;;16.09;82.72
42003;BME280;27693;50.506;30.832;2023-07-24T03:11:18;99617.82;;;16.16;81.86
42003;BME280;27693;50.506;30.832;2023-07-24T03:12:20;99619.38;;;16.18;82.04
42003;BME280;27693;50.506;30.832;2023-07-24T03:13:23;99619.50;;;16.17;80.71
42003;BME280;27693;50.506;30.832;2023-07-24T03:14:26;99626.44;;;16.18;80.23
42003;BME280;27693;50.506;30.832;2023-07-24T03:15:28;99625.49;;;16.19;81.26
42003;BME280;27693;50.506;30.832;2023-07-24T03:16:31;99619.62;;;16.15;80.37
42003;BME280;27693;50.506;30.832;2023-07-24T03:17:34;99622.33;;;16.13;79.77
42003;BME280;27693;50.506;30.832;2023-07-24T03:18:36;99623.19;;;16.14;79.74
42003;BME280;27693;50.506;30.832;2023-07-24T03:19:38;99623.58;;;16.21;79.58
42003;BME280;27693;50.506;30.832;2023-07-24T03:20:42;99626.73;;;16.26;79.51
42003;BME280;27693;50.506;30.832;2023-07-24T03:21:45;99627.44;;;16.28;78.98
42003;BME280;27693;50.506;30.832;2023-07-24T03:22:47;99619.36;;;16.31;78.80
42003;BME280;27693;50.506;30.832;2023-07-24T03:23:49;99619.00;;;16.11;79.11
42003;BME280;27693;50.506;30.832;2023-07-24T03:24:52;99620.69;;;16.00;79.78
42003;BME280;27693;50.506;30.832;2023-07-24T03:25:55;99620.26;;;16.06;79.96
42003;BME280;27693;50.506;30.832;2023-07-24T03:26:58;99621.75;;;15.97;80.07
42003;BME280;27693;50.506;30.832;2023-07-24T03:28:02;99623.86;;;15.92;80.85
42003;BME280;27693;50.506;30.832;2023-07-24T03:29:06;99627.00;;;15.97;80.75
42003;BME280;27693;50.506;30.832;2023-07-24T03:30:09;99618.38;;;15.95;80.72
42003;BME280;27693;50.506;30.832;2023-07-24T03:31:12;99616.50;;;15.97;80.73
42003;BME280;27693;50.506;30.832;2023-07-24T03:32:14;99610.80;;;16.16;80.21
42003;BME280;27693;50.506;30.832;2023-07-24T03:33:16;99610.80;;;16.16;80.21
42003;BME280;27693;50.506;30.832;2023-07-24T03:34:19;99607.30;;;16.28;79.89
42003;BME280;27693;50.506;30.832;2023-07-24T03:35:21;99611.98;;;16.36;79.33
42003;BME280;27693;50.506;30.832;2023-07-24T03:36:24;99607.97;;;16.43;78.57
42003;BME280;27693;50.506;30.832;2023-07-24T03:37:26;99605.14;;;16.47;78.25
42003;BME280;27693;50.506;30.832;2023-07-24T03:38:29;99602.96;;;16.40;77.56
42003;BME280;27693;50.506;30.832;2023-07-24T03:39:31;99611.39;;;16.57;77.36
42003;BME280;27693;50.506;30.832;2023-07-24T03:40:34;99613.02;;;16.47;77.38
42003;BME280;27693;50.506;30.832;2023-07-24T03:41:41;99606.13;;;16.33;77.87
42003;BME280;27693;50.506;30.832;2023-07-24T03:42:51;99609.16;;;16.39;78.30
42003;BME280;27693;50.506;30.832;2023-07-24T03:43:53;99610.92;;;16.39;78.48
42003;BME280;27693;50.506;30.832;2023-07-24T03:44:55;99613.72;;;16.49;78.24
42003;BME280;27693;50.506;30.832;2023-07-24T03:46:01;99616.69;;;16.68;79.43
42003;BME280;27693;50.506;30.832;2023-07-24T03:47:03;99607.20;;;16.79;77.97
42003;BME280;27693;50.506;30.832;2023-07-24T03:48:06;99608.27;;;17.00;76.77
42003;BME280;27693;50.506;30.832;2023-07-24T03:49:09;99612.81;;;17.09;76.88
42003;BME280;27693;50.506;30.832;2023-07-24T03:50:11;99603.03;;;17.12;76.10
42003;BME280;27693;50.506;30.832;2023-07-24T03:51:14;99596.63;;;17.27;75.29
42003;BME280;27693;50.506;30.832;2023-07-24T03:52:17;99596.63;;;17.27;75.29
42003;BME280;27693;50.506;30.832;2023-07-24T03:53:19;99600.89;;;17.17;73.90
42003;BME280;27693;50.506;30.832;2023-07-24T03:54:22;99592.80;;;17.31;75.46
42003;BME280;27693;50.506;30.832;2023-07-24T03:55:24;99599.88;;;17.42;74.08
42003;BME280;27693;50.506;30.832;2023-07-24T03:56:26;99602.84;;;17.37;74.60
42003;BME280;27693;50.506;30.832;2023-07-24T03:57:29;99597.59;;;17.37;74.28
42003;BME280;27693;50.506;30.832;2023-07-24T03:58:32;99599.66;;;17.45;75.05
42003;BME280;27693;50.506;30.832;2023-07-24T03:59:35;99602.03;;;17.48;73.58
42003;BME280;27693;50.506;30.832;2023-07-24T04:00:38;99599.78;;;17.55;74.17
42003;BME280;27693;50.506;30.832;2023-07-24T04:01:41;99600.73;;;17.43;75.95
42003;BME280;27693;50.506;30.832;2023-07-24T04:02:46;99601.94;;;17.50;75.66
42003;BME280;27693;50.506;30.832;2023-07-24T04:03:51;99599.30;;;17.50;77.91
42003;BME280;27693;50.506;30.832;2023-07-24T04:04:54;99607.41;;;17.47;75.38
42003;BME280;27693;50.506;30.832;2023-07-24T04:05:56;99597.15;;;17.55;77.16
42003;BME280;27693;50.506;30.832;2023-07-24T04:06:59;99603.23;;;17.44;74.43
42003;BME280;27693;50.506;30.832;2023-07-24T04:08:02;99595.09;;;17.36;75.08
42003;BME280;27693;50.506;30.832;2023-07-24T04:09:05;99594.95;;;17.37;77.28
42003;BME280;27693;50.506;30.832;2023-07-24T04:10:08;99598.19;;;17.41;78.19
42003;BME280;27693;50.506;30.832;2023-07-24T04:11:11;99594.52;;;17.55;78.49
42003;BME280;27693;50.506;30.832;2023-07-24T04:12:14;99588.30;;;17.67;77.16
42003;BME280;27693;50.506;30.832;2023-07-24T04:13:16;99587.82;;;17.73;76.33
42003;BME280;27693;50.506;30.832;2023-07-24T04:14:20;99594.06;;;17.84;77.48
42003;BME280;27693;50.506;30.832;2023-07-24T04:15:23;99589.00;;;17.92;76.98
42003;BME280;27693;50.506;30.832;2023-07-24T04:16:27;99588.58;;;17.98;76.29
42003;BME280;27693;50.506;30.832;2023-07-24T04:17:31;99583.41;;;17.97;76.04
42003;BME280;27693;50.506;30.832;2023-07-24T04:18:34;99586.16;;;18.07;76.22
42003;BME280;27693;50.506;30.832;2023-07-24T04:19:36;99586.88;;;18.09;74.17
42003;BME280;27693;50.506;30.832;2023-07-24T04:20:39;99583.52;;;18.07;74.81
42003;BME280;27693;50.506;30.832;2023-07-24T04:21:41;99589.28;;;18.12;74.15
42003;BME280;27693;50.506;30.832;2023-07-24T04:22:44;99589.48;;;18.20;74.70
42003;BME280;27693;50.506;30.832;2023-07-24T04:23:49;99583.52;;;18.18;72.38
42003;BME280;27693;50.506;30.832;2023-07-24T04:24:52;99582.07;;;18.25;72.04
42003;BME280;27693;50.506;30.832;2023-07-24T04:25:55;99582.07;;;18.25;72.04
42003;BME280;27693;50.506;30.832;2023-07-24T04:26:59;99584.58;;;18.27;73.08
42003;BME280;27693;50.506;30.832;2023-07-24T04:28:03;99581.84;;;18.17;71.44
42003;BME280;27693;50.506;30.832;2023-07-24T04:29:06;99576.22;;;18.22;72.24
42003;BME280;27693;50.506;30.832;2023-07-24T04:30:11;99583.72;;;18.26;73.44
42003;BME280;27693;50.506;30.832;2023-07-24T04:31:15;99578.94;;;18.31;73.38
42003;BME280;27693;50.506;30.832;2023-07-24T04:32:19;99565.95;;;18.51;73.26
42003;BME280;27693;50.506;30.832;2023-07-24T04:33:22;99565.95;;;18.51;73.26
42003;BME280;27693;50.506;30.832;2023-07-24T04:34:26;99577.67;;;18.47;70.91
42003;BME280;27693;50.506;30.832;2023-07-24T04:35:28;99584.84;;;18.56;73.01
42003;BME280;27693;50.506;30.832;2023-07-24T04:36:31;99576.22;;;18.54;71.72
42003;BME280;27693;50.506;30.832;2023-07-24T04:37:34;99579.34;;;18.59;73.07
42003;BME280;27693;50.506;30.832;2023-07-24T04:38:36;99578.25;;;18.62;72.98
42003;BME280;27693;50.506;30.832;2023-07-24T04:39:39;99577.39;;;18.61;72.34
42003;BME280;27693;50.506;30.832;2023-07-24T04:40:44;99583.34;;;18.42;71.98
42003;BME280;27693;50.506;30.832;2023-07-24T04:41:47;99583.94;;;18.46;74.10
42003;BME280;27693;50.506;30.832;2023-07-24T04:42:50;99587.74;;;18.53;74.65
42003;BME280;27693;50.506;30.832;2023-07-24T04:43:52;99582.80;;;18.60;73.61
42003;BME280;27693;50.506;30.832;2023-07-24T04:44:55;99581.25;;;18.57;73.65
42003;BME280;27693;50.506;30.832;2023-07-24T04:45:57;99589.87;;;18.59;73.38
42003;BME280;27693;50.506;30.832;2023-07-24T04:46:59;99587.26;;;18.48;73.10
42003;BME280;27693;50.506;30.832;2023-07-24T04:48:04;99582.58;;;18.51;72.89
42003;BME280;27693;50.506;30.832;2023-07-24T04:49:11;99590.84;;;18.47;73.21
42003;BME280;27693;50.506;30.832;2023-07-24T04:50:23;99581.48;;;18.54;76.18
42003;BME280;27693;50.506;30.832;2023-07-24T04:51:28;99579.40;;;18.36;76.31
42003;BME280;27693;50.506;30.832;2023-07-24T04:52:30;99581.08;;;18.38;75.42
42003;BME280;27693;50.506;30.832;2023-07-24T04:53:33;99581.99;;;18.48;75.68
42003;BME280;27693;50.506;30.832;2023-07-24T04:54:35;99577.89;;;18.55;75.55
42003;BME280;27693;50.506;30.832;2023-07-24T04:55:37;99580.98;;;18.60;75.84
42003;BME280;27693;50.506;30.832;2023-07-24T04:56:40;99581.92;;;18.71;75.13
42003;BME280;27693;50.506;30.832;2023-07-24T04:57:43;99581.68;;;18.74;74.71
42003;BME280;27693;50.506;30.832;2023-07-24T04:58:45;99578.05;;;18.75;73.29
42003;BME280;27693;50.506;30.832;2023-07-24T04:59:47;99584.31;;;18.74;74.00
42003;BME280;27693;50.506;30.832;2023-07-24T05:00:50;99578.46;;;18.70;73.61
42003;BME280;27693;50.506;30.832;2023-07-24T05:01:53;99580.00;;;18.73;73.76
42003;BME280;27693;50.506;30.832;2023-07-24T05:02:55;99582.81;;;18.81;73.23
42003;BME280;27693;50.506;30.832;2023-07-24T05:03:59;99574.53;;;18.86;73.30
42003;BME280;27693;50.506;30.832;2023-07-24T05:05:01;99572.48;;;18.89;73.34
42003;BME280;27693;50.506;30.832;2023-07-24T05:06:04;99571.05;;;18.96;73.10
42003;BME280;27693;50.506;30.832;2023-07-24T05:07:07;99574.13;;;19.02;73.18
42003;BME280;27693;50.506;30.832;2023-07-24T05:08:10;99573.63;;;19.08;72.47
42003;BME280;27693;50.506;30.832;2023-07-24T05:09:13;99577.09;;;19.08;72.39
42003;BME280;27693;50.506;30.832;2023-07-24T05:10:16;99576.72;;;19.13;72.39
42003;BME280;27693;50.506;30.832;2023-07-24T05:11:19;99571.50;;;19.23;71.96
42003;BME280;27693;50.506;30.832;2023-07-24T05:12:23;99578.83;;;19.19;71.50
42003;BME280;27693;50.506;30.832;2023-07-24T05:13:27;99577.23;;;19.07;71.79
42003;BME280;27693;50.506;30.832;2023-07-24T05:14:29;99575.55;;;19.06;71.64
42003;BME280;27693;50.506;30.832;2023-07-24T05:15:32;99567.13;;;19.12;72.37
42003;BME280;27693;50.506;30.832;2023-07-24T05:16:34;99562.61;;;19.03;71.03
42003;BME280;27693;50.506;30.832;2023-07-24T05:17:36;99562.61;;;19.03;71.03
42003;BME280;27693;50.506;30.832;2023-07-24T05:18:39;99570.72;;;19.11;70.90
42003;BME280;27693;50.506;30.832;2023-07-24T05:19:42;99565.59;;;19.09;70.21
42003;BME280;27693;50.506;30.832;2023-07-24T05:20:46;99558.12;;;19.14;70.99
42003;BME280;27693;50.506;30.832;2023-07-24T05:21:55;99564.73;;;19.09;70.98
42003;BME280;27693;50.506;30.832;2023-07-24T05:22:57;99560.38;;;19.19;71.25
42003;BME280;27693;50.506;30.832;2023-07-24T05:24:00;99558.70;;;19.18;70.68
42003;BME280;27693;50.506;30.832;2023-07-24T05:25:05;99561.91;;;19.22;71.27
42003;BME280;27693;50.506;30.832;2023-07-24T05:26:09;99562.16;;;19.19;70.89
42003;BME280;27693;50.506;30.832;2023-07-24T05:27:11;99559.03;;;19.25;71.31
42003;BME280;27693;50.506;30.832;2023-07-24T05:28:14;99555.39;;;19.26;70.81
42003;BME280;27693;50.506;30.832;2023-07-24T05:29:16;99566.03;;;19.36;71.57
42003;BME280;27693;50.506;30.832;2023-07-24T05:30:18;99555.20;;;19.39;70.48
42003;BME280;27693;50.506;30.832;2023-07-24T05:31:21;99561.09;;;19.52;71.65
42003;BME280;27693;50.506;30.832;2023-07-24T05:32:23;99555.52;;;19.45;70.46
42003;BME280;27693;50.506;30.832;2023-07-24T05:33:27;99559.87;;;19.56;70.12
42003;BME280;27693;50.506;30.832;2023-07-24T05:34:29;99555.56;;;19.55;69.36